Flight Track Log - Related Links

Times and Time Zones

All times are in EDT time to prevent confusion due to time zone crossing. See the BVN7571 flight status page for this flight to view local times or setup timezone preferences in your user account.

Time Position Orientation Groundspeed Altitude Reporting Facility
EDT Latitude Longitude Course Direction KTS MPH feet Rate Location/Type
Thu 08:08:10 PM 40.7561 -98.9286 75° East 106 122 3,900  Level Minneapolis Center
Thu 08:09:12 PM 40.7642 -98.8900 75° East 110 127 4,500 634 Climbing Minneapolis Center
Thu 08:10:13 PM 40.7714 -98.8503 76° East 111 128 5,200 677 Climbing Minneapolis Center
Thu 08:11:16 PM 40.7811 -98.8003 76° East 114 131 5,900 672 Climbing Minneapolis Center
Thu 08:12:18 PM 40.7903 -98.7578 74° East 117 135 6,600 581 Climbing Minneapolis Center
Thu 08:13:00 PM 40.7859 -98.7105 75° East  Level Estimated
Thu 08:13:20 PM 40.7981 -98.7136 77° East 121 139 7,100  Level Minneapolis Center
Thu 08:14:22 PM 40.8069 -98.6650 76° East 128 147 7,500 435 Climbing Minneapolis Center
Thu 08:15:24 PM 40.8167 -98.6111 77° East 139 160 8,000 532 Climbing Minneapolis Center
Thu 08:16:26 PM 40.8289 -98.5469 76° East 147 169 8,600 484 Climbing Minneapolis Center
Thu 08:17:28 PM 40.8394 -98.4917 76° East 152 175 9,000 435 Climbing Minneapolis Center
Thu 08:18:30 PM 40.8503 -98.4350 76° East 156 180 9,500 484 Climbing Minneapolis Center
Thu 08:19:32 PM 40.8606 -98.3772 77° East 161 185 10,000 432 Climbing Minneapolis Center
Thu 08:20:35 PM 40.8711 -98.3186 77° East 163 188 10,400 432 Climbing Minneapolis Center
Thu 08:21:37 PM 40.8839 -98.2489 76° East 164 189 10,900 290 Climbing Minneapolis Center
Thu 08:22:39 PM 40.8947 -98.1869 77° East 170 196 11,000 48 Climbing Minneapolis Center
Thu 08:23:41 PM 40.9083 -98.1203 75° East 182 209 11,000 -48 Level Minneapolis Center
Thu 08:24:43 PM 40.9211 -98.0531 76° East 187 215 10,900 -48 Descending Minneapolis Center
Thu 08:25:45 PM 40.9339 -97.9878 75° East 186 214 10,900  Level Minneapolis Center
Thu 08:26:47 PM 40.9453 -97.9228 77° East 183 211 10,900  Level Minneapolis Center
Thu 08:27:49 PM 40.9594 -97.8447 76° East 182 209 10,900  Level Minneapolis Center
Thu 08:28:51 PM 40.9725 -97.7783 75° East 185 213 10,900  Level Minneapolis Center
Thu 08:29:54 PM 40.9839 -97.7133 77° East 183 211 10,900 48 Level Minneapolis Center
Thu 08:30:56 PM 40.9961 -97.6483 76° East 183 211 11,000  Climbing Minneapolis Center
Thu 08:31:58 PM 41.0081 -97.5833 76° East 183 211 10,900 -48 Descending Minneapolis Center
Thu 08:33:00 PM 41.0192 -97.5206 77° East 178 205 10,900  Level Minneapolis Center
Thu 08:34:02 PM 41.0328 -97.4464 76° East 175 201 10,900 48 Level Minneapolis Center
Thu 08:35:04 PM 41.0439 -97.3847 77° East 172 198 11,000 48 Climbing Minneapolis Center
Thu 08:36:06 PM 41.0544 -97.3211 78° East 173 199 11,000 -48 Level Minneapolis Center
Thu 08:37:08 PM 41.0650 -97.2583 77° East 175 201 10,900 -48 Descending Minneapolis Center
Thu 08:38:10 PM 41.0764 -97.1967 76° East 174 200 10,900 48 Level Minneapolis Center
Thu 08:39:13 PM 41.0878 -97.1358 76° East 173 199 11,000  Climbing Minneapolis Center
Thu 08:40:15 PM 41.0992 -97.0742 76° East 172 198 10,900  Descending Minneapolis Center
Thu 08:41:17 PM 41.1128 -97.0000 76° East 173 199 11,000 48 Climbing Minneapolis Center
Thu 08:42:19 PM 41.1233 -96.9378 77° East 173 199 11,000 -48 Level Minneapolis Center
Thu 08:43:21 PM 41.1339 -96.8753 77° East 174 200 10,900  Descending Minneapolis Center
Thu 08:44:04 PM 41.1314 -96.8264 94° East 173 199 11,000 58 Climbing Minneapolis Center
Thu 08:45:05 PM 41.1425 -96.7644 77° East 172 198 11,000  Level Minneapolis Center
Thu 08:46:11 PM 41.1550 -96.6967 76° East 173 199 11,000 -142 Level Minneapolis Center
Thu 08:47:12 PM 41.1681 -96.6344 74° East 178 205 10,700 -466 Descending Minneapolis Center
Thu 08:48:07 PM 41.1789 -96.5697 77° East 199 229 10,100 -522 Descending Minneapolis Center
Thu 08:49:07 PM 41.1936 -96.5017 74° East 195 224 9,700 -645 Descending Minneapolis Center
Thu 08:50:08 PM 41.2061 -96.4311 77° East 195 224 8,800 -1,031 Descending Minneapolis Center
Thu 08:51:15 PM 41.2219 -96.3492 76° East 199 229 7,500 -1,041 Descending Minneapolis Center
Thu 08:52:09 PM 41.2325 -96.2869 77° East 185 213 6,700 -918 Descending Minneapolis Center
Thu 08:52:40 PM 41.2436 -96.2514 67° East 190 219 6,200 -896 Descending Minneapolis Center
Thu 08:53:16 PM 41.2450 -96.2192 87° East 182 209 5,700 -928 Descending Minneapolis Center
Thu 08:54:17 PM 41.2572 -96.1486 77° East 181 208 4,700 -887 Descending Minneapolis Center
Thu 08:55:11 PM 41.2708 -96.0969 71° East 174 200 4,000 -539 Descending Minneapolis Center
Thu 08:55:46 PM 41.2806 -96.0636 69° East 175 201 3,900 -658 Descending Minneapolis Center
Thu 08:56:24 PM 41.2931 -96.0225 68° East 172 198 3,200 -918 Descending Minneapolis Center
Thu 08:57:24 PM 41.3083 -95.9653 70° East 163 188 2,400 -868 Descending Minneapolis Center
Thu 08:58:56 PM 41.3117 -95.9036 86° East 141 162 1,000 -913 Descending Minneapolis Center
Thu 09:00:00 PM 41.3032 -95.8941 37° Northeast  Level Estimated

Login

Don't have an account? Register now (free) for customized features, flight alerts, and more!